createdAt,value
2019-02-20T00:02:04.653Z,11.33
2019-02-20T00:12:10.546Z,11.05
2019-02-20T00:22:16.518Z,9.18
2019-02-20T00:32:22.417Z,10.78
2019-02-20T00:42:29.134Z,9.35
2019-02-20T00:52:36.699Z,9.00
2019-02-20T01:02:42.702Z,9.73
2019-02-20T01:12:48.643Z,9.15
2019-02-20T01:22:59.817Z,8.25
2019-02-20T01:33:01.915Z,12.60
2019-02-20T01:43:07.657Z,8.35
2019-02-20T01:53:13.474Z,8.28
2019-02-20T02:03:19.414Z,7.50
2019-02-20T02:13:25.211Z,8.18
2019-02-20T02:23:31.074Z,8.98
2019-02-20T02:33:36.921Z,8.00
2019-02-20T02:43:42.679Z,6.72
2019-02-20T02:53:48.610Z,8.65
2019-02-20T03:03:54.459Z,6.50
2019-02-20T03:14:00.284Z,7.45
2019-02-20T03:24:06.195Z,6.25
2019-02-20T03:34:12.033Z,7.60
2019-02-20T03:44:18.066Z,6.78
2019-02-20T03:54:24.100Z,7.03
2019-02-20T04:04:29.992Z,8.63
2019-02-20T04:14:35.890Z,5.97
2019-02-20T04:24:41.747Z,6.42
2019-02-20T04:34:47.643Z,7.10
2019-02-20T04:44:53.544Z,6.15
2019-02-20T04:54:59.633Z,4.70
2019-02-20T05:05:05.546Z,4.65
2019-02-20T05:15:11.472Z,4.47
2019-02-20T05:25:17.269Z,4.85
2019-02-20T05:35:23.250Z,5.12
2019-02-20T05:45:28.993Z,8.83
2019-02-20T05:55:34.898Z,8.73
2019-02-20T06:05:40.574Z,4.72
2019-02-20T06:25:51.370Z,4.58
2019-02-20T06:35:57.154Z,3.98
2019-02-20T06:46:03.009Z,5.25
2019-02-20T06:56:08.802Z,4.47
2019-02-20T07:17:03.275Z,3.77
2019-02-20T07:27:31.316Z,7.80
2019-02-20T07:37:37.210Z,4.35
2019-02-20T07:47:43.140Z,4.97
2019-02-20T07:57:49.298Z,5.72
2019-02-20T08:07:55.132Z,9.55
2019-02-20T08:18:01.025Z,20.23
2019-02-20T08:28:07.031Z,19.73
2019-02-20T08:38:12.947Z,21.48
2019-02-20T08:48:18.874Z,23.07
2019-02-20T08:58:24.855Z,26.17
2019-02-20T09:08:30.783Z,21.87
2019-02-20T09:18:36.678Z,13.60
2019-02-20T09:28:42.614Z,12.10
2019-02-20T09:38:48.603Z,15.32
2019-02-20T09:48:54.478Z,12.65
2019-02-20T09:59:00.327Z,16.17
2019-02-20T10:09:07.182Z,21.87
2019-02-20T10:19:13.112Z,14.63
2019-02-20T10:29:18.986Z,10.75
2019-02-20T10:39:24.798Z,12.68
2019-02-20T10:59:35.498Z,13.30
2019-02-20T11:09:42.312Z,9.23
2019-02-20T11:19:48.139Z,14.87
2019-02-20T11:29:54.075Z,15.13
2019-02-20T11:40:00.026Z,16.30
2019-02-20T11:50:08.839Z,27.75
2019-02-20T12:00:19.051Z,18.65
2019-02-20T12:10:24.920Z,12.93
2019-02-20T12:20:30.809Z,17.37
2019-02-20T12:30:38.029Z,11.85
2019-02-20T12:50:49.111Z,11.15
2019-02-20T13:00:55.038Z,18.20
2019-02-20T13:11:00.884Z,21.70
2019-02-20T13:21:06.715Z,21.87
2019-02-20T13:31:12.619Z,19.23
2019-02-20T13:51:23.417Z,19.17
2019-02-20T14:01:29.599Z,48.30
2019-02-20T14:11:35.505Z,22.77
2019-02-20T14:21:41.329Z,27.93
2019-02-20T14:31:47.264Z,13.88
2019-02-20T14:41:53.193Z,29.45
2019-02-20T14:51:59.052Z,19.98
2019-02-20T15:02:04.991Z,17.77
2019-02-20T15:22:15.893Z,14.60
2019-02-20T15:32:21.734Z,15.68
2019-02-20T15:42:27.649Z,14.55
2019-02-20T15:52:33.478Z,19.00
2019-02-20T16:02:39.260Z,27.25
2019-02-20T16:12:45.138Z,25.70
2019-02-20T16:22:51.015Z,19.82
2019-02-20T16:32:56.878Z,22.85
2019-02-20T16:43:03.871Z,16.82
2019-02-20T16:53:10.047Z,11.48
2019-02-20T17:03:16.079Z,19.60
2019-02-20T17:13:21.909Z,20.88
2019-02-20T17:23:27.916Z,21.80
2019-02-20T17:33:33.962Z,16.15
2019-02-20T17:43:39.929Z,26.82
2019-02-20T17:53:45.932Z,39.33
2019-02-20T18:03:52.359Z,21.77
2019-02-20T18:13:58.283Z,16.93
2019-02-20T18:24:04.144Z,25.68
2019-02-20T18:34:10.137Z,18.00
2019-02-20T18:44:16.118Z,15.95
2019-02-20T18:54:22.121Z,21.93
2019-02-20T19:04:28.037Z,24.77
2019-02-20T19:15:10.246Z,29.30
2019-02-20T19:25:39.017Z,27.45
2019-02-20T19:36:20.782Z,21.55
2019-02-20T19:46:45.131Z,35.35
2019-02-20T19:57:07.763Z,34.20
2019-02-20T20:07:52.716Z,33.98
2019-02-20T20:28:28.981Z,25.02
2019-02-20T20:39:13.475Z,18.77
2019-02-20T20:49:39.131Z,16.73
2019-02-20T21:00:24.891Z,21.23
2019-02-20T21:11:11.662Z,23.83
2019-02-20T21:21:34.049Z,24.85
2019-02-20T21:32:13.465Z,11.80
2019-02-20T21:42:38.882Z,15.28
2019-02-20T21:53:13.553Z,24.07
2019-02-20T22:04:03.380Z,13.60
2019-02-20T22:24:53.320Z,13.38
2019-02-20T22:35:39.808Z,16.02
2019-02-20T22:45:50.140Z,17.32
2019-02-20T22:56:30.144Z,11.60
2019-02-20T23:06:49.117Z,15.43
2019-02-20T23:16:54.953Z,8.40
2019-02-20T23:27:01.846Z,12.25
2019-02-20T23:37:07.851Z,12.90
2019-02-20T23:47:13.715Z,8.28
2019-02-20T23:57:19.578Z,7.87
